Time;durP1;ratioP1;P1;durP2;ratioP2;P2;SDS_P1;SDS_P2;PMS_P1;PMS_P2;Temp;Humidity;BMP_temperature;BMP_pressure;BME280_temperature;BME280_humidity;BME280_pressure;Samples;Min_cycle;Max_cycle;Signal;HPM_P1;HPM_P2
2023/02/02 00:02:04;;;;;;;3.00;1.60;;;9.80;80.30;;;;;;5061305;28;20035;-80
2023/02/02 00:04:32;;;;;;;3.80;1.80;;;9.80;80.30;;;;;;5077792;28;20405;-80
2023/02/02 00:06:59;;;;;;;4.57;1.92;;;9.80;80.30;;;;;;5077665;28;20118;-80
2023/02/02 00:09:30;;;;;;;3.78;1.90;;;9.80;80.30;;;;;;5077542;28;20085;-80
2023/02/02 00:11:57;;;;;;;2.75;1.60;;;9.80;80.40;;;;;;5077502;28;20064;-80
2023/02/02 00:14:24;;;;;;;5.55;2.03;;;9.80;80.30;;;;;;5077385;28;20016;-80
2023/02/02 00:16:51;;;;;;;2.92;1.60;;;9.80;80.30;;;;;;5078445;28;20082;-79
2023/02/02 00:19:25;;;;;;;3.55;1.85;;;9.80;80.40;;;;;;5077306;28;20092;-79
2023/02/02 00:21:51;;;;;;;2.53;1.77;;;9.80;80.30;;;;;;5077325;28;20044;-78
2023/02/02 00:24:18;;;;;;;3.47;1.85;;;9.80;80.40;;;;;;5077285;28;20024;-80
2023/02/02 00:26:49;;;;;;;2.30;1.70;;;9.80;80.30;;;;;;5077351;28;20039;-79
2023/02/02 00:29:24;;;;;;;3.38;1.88;;;9.80;80.40;;;;;;5095014;28;20028;-80
2023/02/02 00:31:50;;;;;;;3.53;1.65;;;9.80;80.40;;;;;;5077288;28;20028;-80
2023/02/02 00:34:17;;;;;;;3.95;1.63;;;9.80;80.30;;;;;;5076972;28;20465;-80
2023/02/02 00:36:44;;;;;;;4.40;1.80;;;9.80;80.40;;;;;;5060435;28;20020;-80
2023/02/02 00:39:14;;;;;;;5.05;1.92;;;9.80;80.30;;;;;;5093950;28;20028;-80
2023/02/02 00:41:39;;;;;;;1.73;1.42;;;9.80;80.40;;;;;;5077003;28;20508;-80
2023/02/02 00:46:49;;;;;;;3.38;1.83;;;9.80;80.40;;;;;;5077609;28;20055;-80
2023/02/02 00:49:15;;;;;;;2.55;1.77;;;9.80;80.40;;;;;;5060937;28;20032;-81
2023/02/02 00:51:41;;;;;;;3.75;2.20;;;9.80;80.40;;;;;;5076889;28;20028;-80
2023/02/02 00:54:07;;;;;;;4.05;2.05;;;9.80;80.40;;;;;;5094945;28;20028;-80
2023/02/02 00:56:33;;;;;;;3.83;1.63;;;9.80;80.40;;;;;;5076632;28;20418;-80
2023/02/02 00:58:58;;;;;;;3.45;1.90;;;9.80;80.50;;;;;;5076950;28;20032;-80
2023/02/02 01:01:24;;;;;;;3.10;1.60;;;9.80;80.40;;;;;;5076625;28;20028;-80
2023/02/02 01:03:50;;;;;;;3.80;1.90;;;9.80;80.50;;;;;;5076713;28;20081;-80
2023/02/02 01:06:17;;;;;;;4.45;2.20;;;9.80;80.50;;;;;;5076483;28;20035;-80
2023/02/02 01:08:43;;;;;;;2.80;1.70;;;9.80;80.50;;;;;;5059797;28;20100;-80
2023/02/02 01:11:09;;;;;;;3.80;1.77;;;9.70;80.40;;;;;;5060297;28;20118;-80
2023/02/02 01:13:35;;;;;;;4.05;1.92;;;9.80;80.50;;;;;;5076285;28;20101;-80
2023/02/02 01:16:02;;;;;;;3.42;1.90;;;9.80;80.50;;;;;;5059694;28;20036;-80
2023/02/02 01:18:29;;;;;;;2.92;1.73;;;9.80;80.50;;;;;;5076267;28;20138;-80
2023/02/02 01:20:59;;;;;;;3.42;1.80;;;9.80;80.50;;;;;;5076226;28;20057;-80
2023/02/02 01:23:25;;;;;;;3.78;2.20;;;9.80;80.50;;;;;;5076552;28;20384;-80
2023/02/02 01:25:55;;;;;;;3.90;1.92;;;9.80;80.50;;;;;;5076200;28;20031;-79
2023/02/02 01:28:21;;;;;;;2.67;2.00;;;9.80;80.50;;;;;;5076103;28;20039;-79
2023/02/02 01:30:48;;;;;;;2.95;1.75;;;9.80;80.50;;;;;;5076154;28;20039;-80
2023/02/02 01:33:15;;;;;;;2.90;1.70;;;9.80;80.50;;;;;;5076110;28;20086;-79
2023/02/02 01:36:04;;;;;;;3.53;1.73;;;9.80;80.50;;;;;;5059674;28;20464;-80
2023/02/02 01:38:30;;;;;;;3.22;1.58;;;9.80;80.50;;;;;;5076996;28;20453;-80
2023/02/02 01:40:56;;;;;;;4.20;1.98;;;9.80;80.40;;;;;;5059174;28;20031;-79
2023/02/02 01:43:28;;;;;;;3.60;1.88;;;9.80;80.50;;;;;;5059244;28;20055;-80
2023/02/02 01:45:56;;;;;;;3.92;1.77;;;9.80;80.50;;;;;;5076787;28;20028;-79
2023/02/02 01:48:31;;;;;;;2.95;1.83;;;9.80;80.50;;;;;;5076117;28;20023;-80
2023/02/02 01:51:06;;;;;;;3.22;1.83;;;9.80;81.20;;;;;;5093721;28;20027;-80
2023/02/02 01:53:33;;;;;;;2.63;1.67;;;9.80;80.50;;;;;;5076004;28;20050;-79
2023/02/02 01:56:02;;;;;;;4.35;1.92;;;9.80;80.50;;;;;;5076047;28;20040;-79
2023/02/02 01:58:36;;;;;;;3.35;1.70;;;9.80;80.50;;;;;;5075958;28;20028;-80
2023/02/02 02:01:03;;;;;;;4.18;1.85;;;9.80;80.50;;;;;;5076043;28;20031;-79
2023/02/02 02:03:32;;;;;;;3.50;1.83;;;9.80;80.50;;;;;;5076194;28;20016;-79
2023/02/02 02:06:04;;;;;;;2.70;1.67;;;9.80;80.50;;;;;;5075656;28;20024;-80
2023/02/02 02:08:37;;;;;;;4.03;1.73;;;9.80;80.50;;;;;;5075954;28;20032;-79
2023/02/02 02:11:03;;;;;;;3.72;2.13;;;9.80;80.50;;;;;;5059939;28;20464;-79
2023/02/02 02:16:28;;;;;;;2.35;1.73;;;9.80;80.50;;;;;;5075759;28;20063;-80
2023/02/02 02:19:05;;;;;;;4.10;2.00;;;9.80;80.50;;;;;;5075585;28;20165;-80
2023/02/02 02:28:31;;;;;;;3.33;1.60;;;9.80;80.50;;;;;;5075546;28;20050;-79
2023/02/02 02:31:25;;;;;;;3.25;1.90;;;9.80;80.50;;;;;;5075938;28;20381;-79
2023/02/02 02:34:05;;;;;;;2.38;1.42;;;9.80;80.50;;;;;;5075983;28;20027;-79
2023/02/02 02:36:43;;;;;;;2.08;1.45;;;9.80;80.50;;;;;;5079972;28;20491;-79
2023/02/02 02:39:38;;;;;;;3.95;1.88;;;9.70;80.50;;;;;;5097545;28;20115;-79
2023/02/02 02:42:12;;;;;;;3.47;1.65;;;9.80;80.60;;;;;;5079950;28;20188;-79
2023/02/02 02:44:38;;;;;;;2.33;1.60;;;9.80;80.60;;;;;;5079582;28;20035;-80
2023/02/02 02:47:04;;;;;;;1.67;1.48;;;9.80;80.60;;;;;;5079259;28;20408;-79
2023/02/02 02:49:30;;;;;;;3.10;1.65;;;9.80;80.60;;;;;;5097776;28;20495;-79
2023/02/02 02:51:56;;;;;;;1.95;1.52;;;9.80;80.60;;;;;;5078981;28;20028;-79
2023/02/02 02:54:29;;;;;;;3.08;1.50;;;9.80;80.60;;;;;;5064106;28;20034;-79
2023/02/02 02:57:17;;;;;;;2.20;1.50;;;9.80;80.60;;;;;;5079248;28;20035;-79
2023/02/02 02:59:52;;;;;;;1.50;1.40;;;9.80;80.60;;;;;;5097072;28;20028;-80
2023/02/02 03:02:17;;;;;;;;;;;9.80;80.50;;;;;;5098253;28;20047;-79
2023/02/02 03:04:50;;;;;;;2.67;1.63;;;9.80;80.50;;;;;;5097392;28;20002;-78
2023/02/02 03:07:46;;;;;;;3.20;1.35;;;9.80;80.40;;;;;;5079059;28;20073;-79
2023/02/02 03:10:17;;;;;;;2.05;1.50;;;9.80;80.60;;;;;;5047980;28;20032;-79
2023/02/02 03:12:48;;;;;;;3.00;1.80;;;9.80;80.50;;;;;;5079115;28;20035;-80
2023/02/02 03:15:15;;;;;;;3.00;1.60;;;9.70;80.50;;;;;;5079052;28;20028;-79
2023/02/02 03:17:41;;;;;;;2.45;1.52;;;9.80;80.50;;;;;;5078990;28;20614;-79
2023/02/02 03:20:09;;;;;;;3.83;1.75;;;9.80;80.60;;;;;;5079033;28;20503;-79
2023/02/02 03:22:34;;;;;;;1.98;1.60;;;9.80;80.50;;;;;;5096825;28;20032;-80
2023/02/02 03:25:00;;;;;;;1.70;1.50;;;9.80;80.60;;;;;;5095642;28;20066;-79
2023/02/02 03:27:27;;;;;;;1.98;1.55;;;9.80;80.50;;;;;;5078892;28;20393;-78
2023/02/02 03:29:53;;;;;;;2.17;1.50;;;9.80;80.60;;;;;;5097161;28;20043;-79
2023/02/02 03:32:20;;;;;;;2.38;1.60;;;9.80;80.60;;;;;;5078366;28;20437;-79
2023/02/02 03:34:45;;;;;;;1.55;1.40;;;9.80;80.60;;;;;;5061864;28;20126;-79
2023/02/02 03:37:11;;;;;;;1.85;1.50;;;9.80;80.60;;;;;;5061634;28;20481;-80
2023/02/02 03:39:37;;;;;;;2.97;1.55;;;9.80;80.60;;;;;;5097013;28;20036;-79
2023/02/02 03:42:02;;;;;;;2.00;1.50;;;9.80;80.50;;;;;;5078393;28;20052;-79
2023/02/02 03:44:28;;;;;;;2.17;1.70;;;9.80;80.50;;;;;;5061761;28;20032;-79
2023/02/02 03:46:54;;;;;;;2.10;1.38;;;9.80;80.50;;;;;;5061520;28;20077;-80
2023/02/02 03:49:20;;;;;;;2.65;1.52;;;9.80;80.60;;;;;;5078426;28;20078;-80
2023/02/02 03:51:47;;;;;;;2.42;1.50;;;9.80;80.50;;;;;;5078308;28;20028;-79
2023/02/02 03:54:14;;;;;;;2.13;1.60;;;9.80;80.50;;;;;;5078019;28;20024;-80
2023/02/02 03:56:40;;;;;;;2.50;1.63;;;9.80;80.50;;;;;;5078208;28;20114;-80
2023/02/02 03:59:06;;;;;;;1.60;1.50;;;9.80;80.50;;;;;;5078192;28;20574;-79
2023/02/02 04:01:32;;;;;;;2.55;1.77;;;9.80;80.50;;;;;;5077756;28;20052;-79
2023/02/02 04:03:58;;;;;;;2.08;1.52;;;9.80;80.50;;;;;;5095605;28;20036;-79
2023/02/02 04:06:24;;;;;;;2.75;1.60;;;9.80;80.60;;;;;;5061947;28;20106;-80
2023/02/02 04:08:51;;;;;;;3.95;1.83;;;9.80;80.60;;;;;;5095714;28;20047;-79
2023/02/02 04:11:17;;;;;;;2.22;1.52;;;9.80;80.60;;;;;;5061220;28;20024;-78
2023/02/02 04:13:43;;;;;;;1.73;1.50;;;9.80;80.60;;;;;;5077701;28;20024;-80
2023/02/02 04:16:11;;;;;;;2.25;1.60;;;9.80;80.60;;;;;;5096014;28;20023;-79
2023/02/02 04:18:36;;;;;;;2.97;1.52;;;9.80;80.60;;;;;;5077602;28;20036;-80
2023/02/02 04:21:04;;;;;;;2.13;1.70;;;9.80;80.60;;;;;;5077465;28;20035;-79
2023/02/02 04:23:30;;;;;;;4.10;1.83;;;9.80;80.60;;;;;;5095584;28;20123;-79
2023/02/02 04:25:56;;;;;;;3.17;1.70;;;9.80;80.60;;;;;;5060739;28;20107;-80
2023/02/02 04:28:23;;;;;;;3.15;1.80;;;9.70;80.60;;;;;;5077045;28;20059;-79
2023/02/02 04:30:50;;;;;;;3.08;1.88;;;9.70;80.60;;;;;;5095219;28;20047;-80
2023/02/02 04:33:15;;;;;;;3.30;1.83;;;9.80;80.70;;;;;;5095245;28;20020;-79
2023/02/02 04:35:42;;;;;;;2.95;1.63;;;9.80;81.30;;;;;;5077135;28;20088;-80
2023/02/02 04:38:08;;;;;;;5.43;2.33;;;9.70;80.60;;;;;;5077393;28;20040;-79
2023/02/02 04:40:41;;;;;;;2.97;1.80;;;9.70;81.30;;;;;;5060491;28;20036;-79
2023/02/02 04:43:08;;;;;;;2.83;1.63;;;9.70;80.70;;;;;;5077178;28;20075;-79
2023/02/02 04:45:34;;;;;;;2.35;1.60;;;9.70;80.70;;;;;;5095284;28;20431;-80
2023/02/02 04:48:00;;;;;;;3.45;1.77;;;9.70;80.60;;;;;;5076955;28;20128;-79
2023/02/02 04:50:26;;;;;;;5.05;2.15;;;9.70;80.70;;;;;;5077149;28;20031;-80
2023/02/02 04:52:52;;;;;;;3.13;1.90;;;9.70;80.70;;;;;;5095397;28;20135;-80
2023/02/02 04:55:18;;;;;;;4.07;2.00;;;9.70;80.70;;;;;;5076505;28;20480;-80
2023/02/02 04:57:43;;;;;;;4.38;1.88;;;9.70;80.70;;;;;;5092775;28;20032;-79
2023/02/02 05:00:10;;;;;;;2.50;1.83;;;9.70;80.70;;;;;;5077075;28;20460;-79
2023/02/02 05:02:37;;;;;;;2.75;1.83;;;9.70;80.70;;;;;;5076868;28;20020;-78
2023/02/02 05:05:05;;;;;;;2.20;1.65;;;9.70;80.70;;;;;;5094808;28;20144;-79
2023/02/02 05:07:31;;;;;;;2.90;1.80;;;9.70;80.70;;;;;;5076854;28;20039;-80
2023/02/02 05:09:57;;;;;;;2.78;1.70;;;9.70;80.70;;;;;;5094418;28;20028;-79
2023/02/02 05:12:23;;;;;;;3.75;1.90;;;9.70;80.70;;;;;;5060732;28;20033;-79
2023/02/02 05:14:48;;;;;;;2.47;1.80;;;9.70;80.70;;;;;;5094954;28;20043;-78
2023/02/02 05:17:14;;;;;;;4.93;2.33;;;9.70;80.70;;;;;;5077029;28;20483;-79
2023/02/02 05:19:41;;;;;;;2.65;1.55;;;9.70;80.70;;;;;;5094453;28;20024;-79
2023/02/02 05:22:07;;;;;;;3.25;1.98;;;9.70;80.70;;;;;;5059734;28;20024;-78
2023/02/02 05:24:33;;;;;;;2.30;1.70;;;9.70;80.70;;;;;;5094859;28;20026;-78
2023/02/02 05:26:59;;;;;;;2.33;1.55;;;9.70;80.70;;;;;;5076510;28;20119;-80
2023/02/02 05:29:26;;;;;;;2.85;1.63;;;9.70;80.70;;;;;;5059747;28;20369;-78
2023/02/02 05:31:52;;;;;;;4.15;1.83;;;9.70;80.70;;;;;;5076262;28;20157;-78
2023/02/02 05:34:18;;;;;;;3.65;2.10;;;9.70;80.70;;;;;;5060680;28;20085;-78
2023/02/02 05:36:44;;;;;;;3.42;1.90;;;9.70;80.70;;;;;;5092900;28;20024;-79
2023/02/02 05:39:10;;;;;;;3.35;1.70;;;9.80;80.80;;;;;;5060401;28;20157;-80
2023/02/02 05:41:36;;;;;;;2.40;1.52;;;9.70;80.70;;;;;;5094525;28;20024;-78
2023/02/02 05:44:02;;;;;;;3.70;1.70;;;9.70;80.70;;;;;;5076038;28;20063;-78
2023/02/02 05:46:28;;;;;;;2.67;1.60;;;9.80;80.70;;;;;;5076479;28;20512;-78
2023/02/02 05:48:54;;;;;;;2.40;1.70;;;9.70;80.70;;;;;;5075998;28;20063;-80
2023/02/02 05:51:25;;;;;;;3.03;1.73;;;9.80;80.70;;;;;;5076433;28;20069;-80
2023/02/02 05:53:50;;;;;;;3.17;2.00;;;9.80;80.80;;;;;;5094264;28;20500;-79
2023/02/02 05:56:16;;;;;;;3.35;2.03;;;9.70;80.70;;;;;;5059402;28;20132;-79
2023/02/02 05:58:43;;;;;;;3.28;1.95;;;9.80;81.30;;;;;;5076544;28;20036;-79
2023/02/02 06:01:09;;;;;;;2.25;1.60;;;9.80;80.70;;;;;;5076795;28;20028;-79
2023/02/02 06:03:35;;;;;;;2.97;1.52;;;9.80;80.70;;;;;;5076831;28;20032;-79
2023/02/02 06:06:00;;;;;;;2.90;1.70;;;9.80;80.70;;;;;;5076494;28;20043;-78
2023/02/02 06:08:26;;;;;;;2.92;1.90;;;9.80;80.70;;;;;;5058727;28;20039;-79
2023/02/02 06:10:53;;;;;;;3.45;1.85;;;9.80;80.70;;;;;;5075563;28;20024;-79
2023/02/02 06:13:18;;;;;;;4.72;2.15;;;9.80;80.70;;;;;;5075754;28;20028;-79
2023/02/02 06:15:44;;;;;;;2.42;1.50;;;9.80;80.70;;;;;;5093321;28;20112;-79
2023/02/02 06:18:10;;;;;;;2.00;1.65;;;9.80;80.70;;;;;;5094057;28;20511;-80
2023/02/02 06:20:36;;;;;;;2.33;1.67;;;9.80;80.70;;;;;;5075992;28;20036;-81
2023/02/02 06:23:02;;;;;;;3.13;1.90;;;9.80;80.70;;;;;;5093857;28;20024;-79
2023/02/02 06:25:28;;;;;;;3.03;1.67;;;9.80;80.70;;;;;;5058845;28;20426;-78
2023/02/02 06:27:58;;;;;;;3.08;1.63;;;9.80;80.70;;;;;;5075761;28;20033;-79
2023/02/02 06:30:24;;;;;;;3.15;1.80;;;9.80;80.70;;;;;;5075185;28;20086;-79
2023/02/02 06:32:50;;;;;;;3.20;1.80;;;9.80;80.70;;;;;;5075638;28;20044;-78
2023/02/02 06:35:16;;;;;;;2.50;1.90;;;9.80;80.70;;;;;;5058680;28;20495;-78
2023/02/02 06:37:42;;;;;;;1.60;1.50;;;9.80;80.70;;;;;;5075111;28;20410;-79
2023/02/02 06:40:08;;;;;;;2.92;1.90;;;9.80;80.70;;;;;;5092249;28;20153;-79
2023/02/02 06:42:35;;;;;;;2.83;1.90;;;9.80;80.70;;;;;;5074675;28;20052;-79
2023/02/02 06:45:02;;;;;;;2.35;1.48;;;9.80;80.70;;;;;;5074887;28;20480;-78
2023/02/02 06:47:27;;;;;;;2.67;1.83;;;9.80;80.70;;;;;;5074807;28;20044;-78
2023/02/02 06:49:53;;;;;;;2.60;1.58;;;9.80;80.70;;;;;;5091507;28;20028;-78
2023/02/02 06:52:19;;;;;;;2.63;1.80;;;9.90;80.70;;;;;;5092838;28;20024;-78
2023/02/02 06:54:44;;;;;;;3.17;1.90;;;9.80;80.70;;;;;;5075609;28;20024;-79
2023/02/02 06:57:10;;;;;;;2.70;1.65;;;9.80;80.70;;;;;;5092866;28;20028;-78
2023/02/02 06:59:37;;;;;;;2.22;1.65;;;9.80;80.70;;;;;;5075802;28;20032;-79
2023/02/02 07:02:02;;;;;;;3.50;1.80;;;9.90;80.70;;;;;;5075101;28;20035;-78
2023/02/02 07:04:28;;;;;;;3.33;1.77;;;9.90;80.80;;;;;;5075785;28;20028;-79
2023/02/02 07:06:54;;;;;;;2.95;1.85;;;9.90;80.70;;;;;;5075245;28;20556;-79
2023/02/02 07:09:20;;;;;;;3.08;1.83;;;9.90;80.70;;;;;;5058473;28;20050;-78
2023/02/02 07:11:45;;;;;;;2.85;1.85;;;9.80;80.70;;;;;;5058515;28;20123;-79
2023/02/02 07:14:11;;;;;;;2.88;1.80;;;9.90;80.70;;;;;;5075221;28;20044;-79
2023/02/02 07:16:37;;;;;;;2.15;1.70;;;9.90;80.70;;;;;;5075055;28;20036;-79
2023/02/02 07:19:02;;;;;;;3.30;1.77;;;9.80;80.70;;;;;;5074963;28;20040;-79
2023/02/02 07:21:34;;;;;;;2.03;1.60;;;9.90;80.70;;;;;;5077643;28;20468;-78
2023/02/02 07:24:01;;;;;;;4.55;1.83;;;9.90;80.70;;;;;;5078623;28;20031;-79
2023/02/02 07:26:27;;;;;;;4.05;2.05;;;9.90;80.70;;;;;;5096785;28;20044;-79
2023/02/02 07:28:53;;;;;;;3.22;1.92;;;9.90;80.70;;;;;;5078418;28;20116;-78
2023/02/02 07:31:24;;;;;;;3.10;1.90;;;9.90;80.70;;;;;;5078203;28;20078;-78
2023/02/02 07:33:51;;;;;;;4.05;2.08;;;9.90;80.70;;;;;;5096319;28;20495;-78
2023/02/02 07:36:19;;;;;;;3.30;1.80;;;9.90;80.70;;;;;;5094808;28;20024;-78
2023/02/02 07:38:46;;;;;;;2.88;1.75;;;9.90;81.30;;;;;;5078149;28;20053;-78
2023/02/02 07:41:13;;;;;;;2.80;1.77;;;9.90;80.70;;;;;;5095483;28;20025;-78
2023/02/02 07:43:39;;;;;;;2.85;1.73;;;9.90;80.70;;;;;;5078153;28;20071;-78
2023/02/02 07:46:08;;;;;;;2.97;1.70;;;9.90;80.70;;;;;;5095008;28;20541;-78
2023/02/02 07:48:35;;;;;;;2.70;1.77;;;9.90;80.70;;;;;;5095978;28;20492;-77
2023/02/02 07:51:05;;;;;;;2.40;1.80;;;9.90;80.70;;;;;;5094775;28;20034;-78
2023/02/02 07:53:32;;;;;;;2.50;1.70;;;9.90;80.70;;;;;;5095125;28;20043;-78
2023/02/02 07:56:22;;;;;;;3.20;1.60;;;9.90;80.70;;;;;;5077675;28;20108;-77
2023/02/02 07:58:51;;;;;;;2.30;1.73;;;9.90;80.80;;;;;;5077553;28;20393;-77
2023/02/02 08:01:17;;;;;;;1.95;1.60;;;9.90;80.70;;;;;;5077603;28;20024;-77
2023/02/02 08:03:43;;;;;;;3.10;1.90;;;9.90;80.70;;;;;;5094702;28;20028;-78
2023/02/02 08:06:16;;;;;;;3.90;2.00;;;9.90;80.70;;;;;;5095523;28;20468;-78
2023/02/02 08:08:42;;;;;;;2.50;1.65;;;9.90;80.70;;;;;;5077717;28;20042;-78
2023/02/02 08:11:10;;;;;;;4.60;1.90;;;9.90;80.70;;;;;;5077574;28;20462;-78
2023/02/02 08:13:36;;;;;;;3.53;1.67;;;10.00;80.80;;;;;;5077884;28;20066;-78
2023/02/02 08:16:02;;;;;;;3.20;2.08;;;10.00;80.80;;;;;;5077177;28;20055;-78
2023/02/02 08:18:27;;;;;;;3.17;1.90;;;9.90;80.70;;;;;;5060711;28;20028;-78
2023/02/02 08:20:56;;;;;;;3.83;1.75;;;10.00;80.80;;;;;;5077490;28;20081;-78
2023/02/02 08:23:22;;;;;;;2.97;1.98;;;10.00;80.80;;;;;;5060633;28;20020;-79
2023/02/02 08:25:52;;;;;;;2.90;1.63;;;10.00;80.80;;;;;;5077314;28;20034;-78
2023/02/02 08:28:18;;;;;;;3.05;2.10;;;10.00;80.80;;;;;;5094338;28;20087;-80
2023/02/02 08:30:44;;;;;;;2.75;1.80;;;10.00;80.70;;;;;;5095973;28;20017;-79
2023/02/02 08:33:10;;;;;;;3.63;2.20;;;10.00;80.80;;;;;;5095400;28;20494;-78
2023/02/02 08:35:43;;;;;;;2.90;2.00;;;10.00;80.80;;;;;;5060689;28;20024;-78
2023/02/02 08:38:09;;;;;;;3.10;2.00;;;10.00;80.80;;;;;;5095160;28;20104;-79
2023/02/02 08:40:35;;;;;;;2.78;1.80;;;10.00;80.80;;;;;;5060422;28;20047;-78
2023/02/02 08:43:02;;;;;;;4.63;2.35;;;10.00;80.80;;;;;;5076618;28;20454;-78
2023/02/02 08:45:28;;;;;;;2.35;1.73;;;10.00;80.80;;;;;;5093662;28;20071;-78
2023/02/02 08:47:54;;;;;;;3.47;1.73;;;10.00;80.80;;;;;;5076767;28;20383;-78
2023/02/02 08:50:20;;;;;;;2.78;1.80;;;10.00;80.80;;;;;;5077456;28;20123;-78
2023/02/02 08:52:45;;;;;;;3.33;1.80;;;10.00;80.80;;;;;;5076786;28;20461;-78
2023/02/02 08:55:11;;;;;;;4.28;1.98;;;10.00;80.80;;;;;;5060023;28;20131;-78
2023/02/02 08:57:37;;;;;;;3.55;1.88;;;10.00;80.80;;;;;;5076590;28;20047;-78
2023/02/02 09:00:06;;;;;;;4.10;1.92;;;10.00;80.80;;;;;;5076133;28;20024;-79
2023/02/02 09:02:32;;;;;;;3.08;1.90;;;10.10;81.50;;;;;;5076679;28;20028;-79
2023/02/02 09:04:57;;;;;;;4.45;1.80;;;10.00;80.70;;;;;;5076558;28;20077;-79
2023/02/02 09:07:23;;;;;;;3.38;1.95;;;10.10;80.80;;;;;;5077133;28;20024;-78
2023/02/02 09:09:51;;;;;;;5.03;2.53;;;10.00;80.70;;;;;;5076387;28;20026;-77
2023/02/02 09:12:17;;;;;;;3.33;1.98;;;10.10;80.80;;;;;;5076125;28;20166;-77
2023/02/02 09:14:43;;;;;;;3.53;2.00;;;10.10;80.70;;;;;;5076082;28;20126;-78
2023/02/02 09:17:08;;;;;;;2.25;1.73;;;10.10;80.70;;;;;;5076245;28;20024;-77
2023/02/02 09:19:34;;;;;;;3.20;1.88;;;10.10;80.70;;;;;;5093129;28;20081;-79
2023/02/02 09:22:00;;;;;;;3.20;1.95;;;10.10;80.70;;;;;;5076337;28;20028;-79
2023/02/02 09:24:25;;;;;;;3.00;1.73;;;10.10;80.70;;;;;;5076442;28;20040;-79
2023/02/02 09:26:51;;;;;;;2.22;1.70;;;10.10;80.70;;;;;;5076068;28;20024;-78
2023/02/02 09:29:17;;;;;;;3.15;1.88;;;10.10;80.70;;;;;;5092989;28;20040;-79
2023/02/02 09:31:43;;;;;;;4.78;2.20;;;10.10;80.70;;;;;;5076337;28;20517;-78
2023/02/02 09:34:11;;;;;;;4.30;2.13;;;10.10;80.60;;;;;;5075839;28;20028;-78
2023/02/02 09:36:39;;;;;;;4.28;2.05;;;10.20;80.70;;;;;;5075941;28;20025;-78
2023/02/02 09:39:05;;;;;;;3.45;2.33;;;10.20;80.70;;;;;;5092548;28;20064;-79
2023/02/02 09:41:36;;;;;;;5.63;2.67;;;10.10;80.60;;;;;;5075871;28;20030;-79
2023/02/02 09:44:33;;;;;;;3.00;2.00;;;10.20;80.70;;;;;;5075343;28;20048;-79
2023/02/02 09:47:25;;;;;;;3.03;1.75;;;10.20;80.70;;;;;;5093567;28;20107;-78
2023/02/02 09:50:22;;;;;;;3.53;2.10;;;10.20;80.70;;;;;;5070073;28;20102;-79
2023/02/02 09:52:57;;;;;;;3.40;2.00;;;10.20;80.70;;;;;;5093574;28;20031;-78
2023/02/02 09:55:33;;;;;;;3.20;2.22;;;10.10;80.70;;;;;;5075793;28;20035;-78
2023/02/02 09:58:11;;;;;;;3.28;1.67;;;10.20;80.70;;;;;;5075832;28;20036;-78
2023/02/02 10:00:44;;;;;;;3.67;2.30;;;10.20;80.80;;;;;;5093891;28;20020;-78
2023/02/02 10:03:13;;;;;;;5.03;2.00;;;10.20;80.70;;;;;;5093787;28;20062;-79
2023/02/02 10:06:05;;;;;;;5.82;2.25;;;10.20;80.70;;;;;;5093759;28;20016;-78
2023/02/02 10:08:40;;;;;;;4.57;2.33;;;10.20;80.70;;;;;;5075518;28;20063;-79
2023/02/02 10:11:24;;;;;;;3.05;2.13;;;10.20;80.70;;;;;;5075995;28;20024;-79
2023/02/02 10:13:53;;;;;;;2.75;1.58;;;10.20;80.70;;;;;;5093679;28;20031;-78
2023/02/02 10:16:21;;;;;;;3.03;1.70;;;10.20;80.60;;;;;;5075885;28;20074;-78
2023/02/02 10:19:08;;;;;;;2.38;1.92;;;10.30;80.70;;;;;;5093532;28;20052;-78
2023/02/02 10:21:39;;;;;;;2.28;1.67;;;10.30;80.70;;;;;;5075612;28;20024;-79
2023/02/02 10:24:14;;;;;;;4.47;1.75;;;10.30;80.70;;;;;;5076134;28;20032;-79
2023/02/02 10:26:50;;;;;;;3.05;1.85;;;10.30;80.70;;;;;;5058515;28;20069;-78
2023/02/02 10:29:25;;;;;;;3.08;1.90;;;10.30;80.70;;;;;;5075645;28;20141;-78
2023/02/02 10:32:00;;;;;;;3.05;2.25;;;10.30;80.60;;;;;;5075456;28;20517;-80
2023/02/02 10:35:19;;;;;;;3.40;1.90;;;10.30;80.60;;;;;;5093210;28;20491;-78
2023/02/02 10:37:57;;;;;;;4.22;2.10;;;10.30;80.70;;;;;;4998501;28;20029;-78
2023/02/02 10:40:39;;;;;;;3.05;1.77;;;10.30;80.60;;;;;;5031015;28;20036;-78
2023/02/02 10:46:08;;;;;;;1.95;1.60;;;10.40;80.70;;;;;;5093874;28;20073;-78
2023/02/02 10:48:34;;;;;;;4.07;1.65;;;10.40;80.60;;;;;;5075366;28;20499;-78
2023/02/02 10:51:22;;;;;;;3.40;2.00;;;10.40;80.60;;;;;;5092008;28;20020;-79
2023/02/02 10:53:57;;;;;;;5.43;2.15;;;10.40;80.70;;;;;;5075513;28;20036;-78
2023/02/02 10:56:41;;;;;;;3.72;1.90;;;10.40;80.60;;;;;;5078015;28;20051;-79
2023/02/02 10:59:26;;;;;;;3.25;1.83;;;10.40;80.70;;;;;;5096842;28;20020;-79
2023/02/02 11:01:52;;;;;;;2.33;1.60;;;10.40;80.60;;;;;;5097474;28;20099;-78
2023/02/02 11:07:03;;;;;;;2.97;1.75;;;10.50;80.60;;;;;;5079292;28;20077;-79
2023/02/02 11:09:39;;;;;;;2.30;1.65;;;10.40;80.60;;;;;;5079367;28;20380;-78
2023/02/02 11:12:26;;;;;;;3.63;1.75;;;10.50;80.70;;;;;;5078234;28;20074;-78
2023/02/02 11:15:00;;;;;;;2.13;1.48;;;10.50;80.70;;;;;;5096349;28;20031;-79
2023/02/02 11:17:27;;;;;;;1.75;1.50;;;10.50;80.60;;;;;;5078685;28;20047;-78
2023/02/02 11:19:54;;;;;;;2.75;1.67;;;10.50;80.60;;;;;;5078796;28;20035;-79
2023/02/02 11:22:33;;;;;;;2.47;1.85;;;10.50;80.60;;;;;;5096417;28;20029;-78
2023/02/02 11:25:05;;;;;;;2.60;1.80;;;10.50;80.60;;;;;;5096253;28;20024;-78
2023/02/02 11:27:40;;;;;;;4.03;1.92;;;10.50;80.50;;;;;;5078490;28;20103;-78
2023/02/02 11:30:34;;;;;;;3.95;2.08;;;10.50;80.60;;;;;;5062070;28;20078;-78
2023/02/02 11:33:29;;;;;;;3.20;1.77;;;10.60;80.60;;;;;;5094946;28;20036;-79
2023/02/02 11:35:57;;;;;;;3.45;1.60;;;10.60;80.60;;;;;;5078527;28;20036;-78
2023/02/02 11:38:25;;;;;;;3.17;1.70;;;10.60;80.60;;;;;;5096681;28;20032;-79
2023/02/02 11:41:05;;;;;;;2.75;1.80;;;10.60;80.60;;;;;;5078425;28;20066;-78
2023/02/02 11:43:50;;;;;;;2.70;1.70;;;10.60;80.60;;;;;;5077915;28;20395;-78
2023/02/02 11:46:29;;;;;;;3.17;1.80;;;10.60;80.60;;;;;;5078246;28;20086;-77
2023/02/02 11:49:01;;;;;;;2.65;1.60;;;10.60;80.60;;;;;;5061206;28;20070;-78
2023/02/02 11:51:29;;;;;;;2.60;1.83;;;10.60;80.60;;;;;;5077797;28;20024;-78
2023/02/02 11:54:10;;;;;;;2.75;1.98;;;10.60;80.50;;;;;;5095905;28;20095;-78
2023/02/02 11:56:37;;;;;;;3.08;1.77;;;10.70;80.60;;;;;;5078237;28;20032;-78
2023/02/02 11:59:04;;;;;;;2.92;1.88;;;10.70;80.60;;;;;;5095983;28;20036;-79
2023/02/02 12:01:33;;;;;;;3.78;1.92;;;10.70;80.50;;;;;;5060841;28;20081;-79
2023/02/02 12:04:20;;;;;;;2.83;1.85;;;10.70;80.60;;;;;;5077551;28;20533;-78
2023/02/02 12:06:46;;;;;;;3.15;2.00;;;10.70;80.50;;;;;;5095575;28;20047;-78
2023/02/02 12:09:23;;;;;;;3.97;1.77;;;10.70;80.50;;;;;;5060767;28;20447;-78
2023/02/02 12:12:10;;;;;;;3.45;2.00;;;10.70;80.60;;;;;;5060897;28;20031;-78
2023/02/02 12:14:58;;;;;;;3.28;1.75;;;10.70;80.50;;;;;;5077841;28;20043;-77
2023/02/02 12:17:41;;;;;;;3.60;1.73;;;10.70;80.50;;;;;;5078405;28;20054;-78
2023/02/02 12:20:42;;;;;;;2.88;1.65;;;10.70;80.50;;;;;;5077691;28;20089;-78
2023/02/02 12:23:17;;;;;;;2.65;1.90;;;10.70;80.50;;;;;;5086952;28;20028;-78
2023/02/02 12:25:45;;;;;;;2.42;1.90;;;10.70;80.50;;;;;;5060790;28;20032;-78
2023/02/02 12:28:30;;;;;;;3.17;1.90;;;10.70;80.50;;;;;;5094928;28;20484;-78
2023/02/02 12:31:04;;;;;;;4.95;1.80;;;10.70;80.60;;;;;;5077690;28;20032;-78
2023/02/02 12:33:33;;;;;;;2.55;1.83;;;10.70;80.50;;;;;;5077420;28;20039;-78
2023/02/02 12:36:11;;;;;;;4.82;1.80;;;10.70;80.50;;;;;;5077111;28;20115;-79
2023/02/02 12:39:01;;;;;;;3.45;1.90;;;10.80;80.60;;;;;;5094875;28;20028;-78
2023/02/02 12:41:48;;;;;;;3.10;1.60;;;10.70;80.60;;;;;;5077009;28;20032;-78
2023/02/02 12:44:16;;;;;;;2.70;1.70;;;10.80;80.60;;;;;;5095961;28;20437;-78
2023/02/02 12:47:01;;;;;;;2.40;1.80;;;10.80;80.60;;;;;;5077282;28;20039;-78
2023/02/02 12:50:14;;;;;;;3.20;1.90;;;10.80;80.60;;;;;;5094687;28;20436;-79
2023/02/02 12:52:51;;;;;;;2.53;1.60;;;10.70;80.60;;;;;;5051730;28;20047;-78
2023/02/02 12:55:20;;;;;;;2.38;1.77;;;10.80;80.60;;;;;;5060395;28;20079;-78
2023/02/02 12:57:58;;;;;;;3.80;1.67;;;10.70;80.50;;;;;;5076866;28;20020;-78
2023/02/02 13:00:27;;;;;;;2.28;1.60;;;10.80;80.60;;;;;;5077431;28;20028;-78
2023/02/02 13:03:14;;;;;;;2.35;1.73;;;10.80;80.60;;;;;;5094417;28;20428;-78
2023/02/02 13:06:04;;;;;;;2.28;1.70;;;10.80;80.70;;;;;;5060104;28;20441;-78
2023/02/02 13:08:50;;;;;;;2.67;1.70;;;10.80;80.60;;;;;;5076426;28;20036;-76
2023/02/02 13:11:29;;;;;;;1.90;1.50;;;10.80;80.60;;;;;;5076670;28;20115;-78
2023/02/02 13:14:12;;;;;;;1.70;1.35;;;10.80;80.60;;;;;;5094596;28;20089;-78
2023/02/02 13:16:47;;;;;;;3.05;1.63;;;10.80;80.60;;;;;;5076357;28;20024;-78
2023/02/02 13:19:38;;;;;;;2.75;1.50;;;10.80;80.60;;;;;;5094242;28;20035;-78
2023/02/02 13:22:09;;;;;;;2.33;1.50;;;10.80;80.70;;;;;;5076099;28;20032;-78
2023/02/02 13:24:39;;;;;;;2.60;1.50;;;10.80;80.60;;;;;;5094425;28;20031;-78
2023/02/02 13:27:09;;;;;;;2.50;1.58;;;10.80;80.60;;;;;;5076413;28;20024;-79
2023/02/02 13:29:42;;;;;;;3.35;1.77;;;10.80;80.60;;;;;;5059326;28;20081;-79